Time;durP1;ratioP1;P1;durP2;ratioP2;P2;SDS_P1;SDS_P2;PMS_P1;PMS_P2;Temp;Humidity;BMP_temperature;BMP_pressure;BME280_temperature;BME280_humidity;BME280_pressure;Samples;Min_cycle;Max_cycle;Signal;HPM_P1;HPM_P2
2022/08/26 00:02:00;;;;;;;;;;;;;;;19.97;60.64;96216.66;5042517;28;19982;-80
2022/08/26 00:04:27;;;;;;;;;;;;;;;19.93;60.57;96206.84;5039059;28;20474;-80
2022/08/26 00:06:54;;;;;;;;;;;;;;;19.91;60.63;96204.50;5043784;28;20324;-80
2022/08/26 00:09:20;;;;;;;;;;;;;;;19.87;60.65;96201.59;5043395;28;20330;-80
2022/08/26 00:11:46;;;;;;;;;;;;;;;19.85;60.93;96209.06;5044611;28;20012;-80
2022/08/26 00:14:12;;;;;;;;;;;;;;;19.83;61.11;96199.78;5046346;28;20335;-80
2022/08/26 00:16:39;;;;;;;;;;;;;;;19.78;61.59;96197.97;5041921;28;19960;-80
2022/08/26 00:19:04;;;;;;;;;;;;;;;19.73;61.28;96192.69;5041514;28;19999;-80
2022/08/26 00:21:30;;;;;;;;;;;;;;;19.71;61.55;96210.03;5046574;28;20050;-80
2022/08/26 00:23:56;;;;;;;;;;;;;;;19.68;61.61;96204.16;5042085;28;19999;-80
2022/08/26 00:26:22;;;;;;;;;;;;;;;19.66;61.54;96198.31;5043582;28;20441;-80
2022/08/26 00:28:48;;;;;;;;;;;;;;;19.65;62.13;96201.25;5039571;28;19965;-80
2022/08/26 00:31:15;;;;;;;;;;;;;;;19.63;61.76;96206.06;5043902;28;19959;-80
2022/08/26 00:33:41;;;;;;;;;;;;;;;19.60;62.35;96199.44;5043046;28;20425;-80
2022/08/26 00:36:08;;;;;;;;;;;;;;;19.57;62.13;96208.00;5045820;28;19966;-80
2022/08/26 00:38:34;;;;;;;;;;;;;;;19.54;62.08;96200.56;5046590;28;20020;-80
2022/08/26 00:41:00;;;;;;;;;;;;;;;19.52;62.37;96196.63;5037573;28;19970;-80
2022/08/26 00:43:28;;;;;;;;;;;;;;;19.50;62.07;96193.44;5043675;28;19956;-80
2022/08/26 00:45:55;;;;;;;;;;;;;;;19.50;62.62;96196.09;5042407;28;19956;-80
2022/08/26 00:48:22;;;;;;;;;;;;;;;19.46;62.65;96199.34;5044791;28;20428;-80
2022/08/26 00:50:51;;;;;;;;;;;;;;;19.45;62.32;96195.06;5042238;28;19963;-80
2022/08/26 00:53:22;;;;;;;;;;;;;;;19.42;62.73;96198.31;5047503;28;19983;-80
2022/08/26 00:55:53;;;;;;;;;;;;;;;19.39;62.86;96200.72;5040625;28;19968;-80
2022/08/26 00:58:21;;;;;;;;;;;;;;;19.37;62.91;96193.03;5038097;28;19960;-80
2022/08/26 01:00:47;;;;;;;;;;;;;;;19.34;62.84;96204.22;5028954;28;20330;-80
2022/08/26 01:03:13;;;;;;;;;;;;;;;19.33;62.94;96207.16;5047159;28;19958;-80
2022/08/26 01:05:40;;;;;;;;;;;;;;;19.30;63.05;96199.72;5045493;28;19964;-80
2022/08/26 01:08:06;;;;;;;;;;;;;;;19.26;63.00;96202.19;5052455;28;19962;-80
2022/08/26 01:10:32;;;;;;;;;;;;;;;19.25;62.75;96212.00;5044906;28;19997;-80
2022/08/26 01:13:00;;;;;;;;;;;;;;;19.23;63.10;96211.50;5041298;28;20041;-80
2022/08/26 01:15:31;;;;;;;;;;;;;;;19.19;63.42;96207.81;5046083;28;19964;-80
2022/08/26 01:17:57;;;;;;;;;;;;;;;19.17;63.49;96206.47;5045766;28;19964;-80
2022/08/26 01:20:32;;;;;;;;;;;;;;;19.15;64.01;96212.09;5052765;28;19963;-80
2022/08/26 01:23:00;;;;;;;;;;;;;;;19.12;64.17;96211.84;5047903;28;20337;-80
2022/08/26 01:25:27;;;;;;;;;;;;;;;19.06;64.07;96203.91;5045627;28;19994;-80
2022/08/26 01:27:56;;;;;;;;;;;;;;;19.03;64.60;96211.66;5040023;28;19972;-80
2022/08/26 01:30:23;;;;;;;;;;;;;;;19.00;64.48;96217.50;5043883;28;19965;-80
2022/08/26 01:32:50;;;;;;;;;;;;;;;18.98;63.96;96214.34;5054927;28;19967;-80
2022/08/26 01:35:17;;;;;;;;;;;;;;;18.98;63.75;96214.34;5043288;28;20395;-80
2022/08/26 01:37:43;;;;;;;;;;;;;;;18.97;64.11;96218.09;5041783;28;19958;-80
2022/08/26 01:40:15;;;;;;;;;;;;;;;18.96;64.56;96219.94;5052443;28;20024;-80
2022/08/26 01:42:41;;;;;;;;;;;;;;;18.94;64.75;96219.44;5046582;28;19973;-80
2022/08/26 01:45:13;;;;;;;;;;;;;;;18.91;65.17;96222.63;5041370;28;19960;-80
2022/08/26 01:47:40;;;;;;;;;;;;;;;18.90;64.74;96217.59;5046489;28;20408;-80
2022/08/26 01:50:09;;;;;;;;;;;;;;;18.87;64.98;96218.94;5048024;28;20325;-80
2022/08/26 01:52:36;;;;;;;;;;;;;;;18.86;64.59;96220.03;5045214;28;19955;-80
2022/08/26 01:55:03;;;;;;;;;;;;;;;18.86;64.95;96228.00;5040106;28;19960;-80
2022/08/26 01:57:29;;;;;;;;;;;;;;;18.84;65.22;96222.16;5046586;28;19989;-80
2022/08/26 01:59:57;;;;;;;;;;;;;;;18.81;65.16;96231.44;5049920;28;20408;-80
2022/08/26 02:02:23;;;;;;;;;;;;;;;18.78;65.28;96224.03;5042284;28;19969;-80
2022/08/26 02:04:52;;;;;;;;;;;;;;;18.76;65.25;96223.50;5041090;28;20349;-80
2022/08/26 02:07:19;;;;;;;;;;;;;;;18.73;65.24;96223.25;5044225;28;19958;-80
2022/08/26 02:09:45;;;;;;;;;;;;;;;18.70;65.81;96226.47;5046121;28;19962;-80
2022/08/26 02:12:14;;;;;;;;;;;;;;;18.68;66.16;96226.72;5044183;28;19955;-80
2022/08/26 02:14:41;;;;;;;;;;;;;;;18.63;66.36;96221.47;5043414;28;19963;-80
2022/08/26 02:17:08;;;;;;;;;;;;;;;18.60;66.20;96220.13;5041450;28;19958;-80
2022/08/26 02:19:37;;;;;;;;;;;;;;;18.59;65.95;96218.56;5050448;28;19969;-80
2022/08/26 02:22:05;;;;;;;;;;;;;;;18.58;65.79;96211.66;5044326;28;20433;-80
2022/08/26 02:24:48;;;;;;;;;;;;;;;18.58;65.91;96219.63;5048567;28;19987;-80
2022/08/26 02:27:20;;;;;;;;;;;;;;;18.58;66.06;96214.31;5048036;28;19967;-80
2022/08/26 02:29:47;;;;;;;;;;;;;;;18.58;66.56;96216.16;5043638;28;19962;-80
2022/08/26 02:32:13;;;;;;;;;;;;;;;18.56;66.77;96219.13;5044054;28;19955;-80
2022/08/26 02:34:39;;;;;;;;;;;;;;;18.53;66.67;96216.19;5052930;28;20052;-80
2022/08/26 02:37:07;;;;;;;;;;;;;;;18.51;66.75;96221.00;5045716;28;19966;-80
2022/08/26 02:39:35;;;;;;;;;;;;;;;18.48;66.54;96211.72;5041215;28;19962;-80
2022/08/26 02:42:02;;;;;;;;;;;;;;;18.46;66.35;96217.28;5043369;28;19968;-80
2022/08/26 02:44:28;;;;;;;;;;;;;;;18.44;66.55;96216.00;5040743;28;19967;-80
2022/08/26 02:46:54;;;;;;;;;;;;;;;18.41;66.56;96217.31;5050201;28;19968;-80
2022/08/26 02:49:20;;;;;;;;;;;;;;;18.39;66.98;96218.66;5061913;28;20004;-80
2022/08/26 02:51:48;;;;;;;;;;;;;;;18.35;67.71;96223.72;5044496;28;19958;-80
2022/08/26 02:54:14;;;;;;;;;;;;;;;18.33;67.45;96222.41;5044032;28;19966;-80
2022/08/26 02:56:40;;;;;;;;;;;;;;;18.29;67.30;96224.00;5054390;28;19966;-80
2022/08/26 02:59:06;;;;;;;;;;;;;;;18.23;67.62;96216.06;5042781;28;20388;-80
2022/08/26 03:01:33;;;;;;;;;;;;;;;18.20;67.17;96210.50;5048042;28;19971;-80
2022/08/26 03:04:01;;;;;;;;;;;;;;;18.16;67.24;96206.81;5041387;28;20435;-80
2022/08/26 03:06:27;;;;;;;;;;;;;;;18.15;67.60;96202.59;5042037;28;20343;-80
2022/08/26 03:08:54;;;;;;;;;;;;;;;18.12;68.05;96209.22;5048328;28;19957;-80
2022/08/26 03:11:21;;;;;;;;;;;;;;;18.09;67.85;96201.00;5044852;28;19953;-79
2022/08/26 03:13:47;;;;;;;;;;;;;;;18.05;68.21;96196.22;5043242;28;20415;-80
2022/08/26 03:16:13;;;;;;;;;;;;;;;18.02;68.45;96199.44;5041985;28;19961;-79
2022/08/26 03:18:39;;;;;;;;;;;;;;;18.03;67.60;96197.56;5044274;28;20036;-80
2022/08/26 03:21:10;;;;;;;;;;;;;;;18.00;67.62;96198.13;5042902;28;19952;-80
2022/08/26 03:23:37;;;;;;;;;;;;;;;17.97;68.84;96203.97;5045930;28;19966;-80
2022/08/26 03:26:03;;;;;;;;;;;;;;;17.95;68.89;96198.91;5039919;28;19986;-80
2022/08/26 03:28:29;;;;;;;;;;;;;;;17.91;69.01;96200.56;5041314;28;19972;-79
2022/08/26 03:30:56;;;;;;;;;;;;;;;17.88;68.57;96200.28;5044718;28;19962;-80
2022/08/26 03:33:23;;;;;;;;;;;;;;;17.86;68.49;96192.59;5043694;28;19955;-80
2022/08/26 03:35:49;;;;;;;;;;;;;;;17.85;68.17;96193.69;5043104;28;20330;-80
2022/08/26 03:38:15;;;;;;;;;;;;;;;17.82;69.12;96194.16;5038033;28;19956;-80
2022/08/26 03:40:41;;;;;;;;;;;;;;;17.81;68.91;96190.72;5045713;28;19992;-80
2022/08/26 03:43:08;;;;;;;;;;;;;;;17.78;68.96;96193.13;5040659;28;19975;-80
2022/08/26 03:45:35;;;;;;;;;;;;;;;17.76;68.78;96188.06;5024464;28;19964;-80
2022/08/26 03:48:02;;;;;;;;;;;;;;;17.75;69.56;96201.63;5039269;28;19976;-80
2022/08/26 03:50:28;;;;;;;;;;;;;;;17.73;69.26;96193.16;5035943;28;19965;-80
2022/08/26 03:52:54;;;;;;;;;;;;;;;17.70;69.75;96204.28;5043904;28;19957;-80
2022/08/26 03:55:22;;;;;;;;;;;;;;;17.67;69.38;96196.88;5043636;28;20433;-79
2022/08/26 03:57:48;;;;;;;;;;;;;;;17.64;69.71;96193.69;5037899;28;19962;-79
2022/08/26 04:00:15;;;;;;;;;;;;;;;17.62;69.54;96189.72;5046110;28;19954;-79
2022/08/26 04:02:44;;;;;;;;;;;;;;;17.60;69.39;96190.00;5047568;28;19967;-79
2022/08/26 04:05:14;;;;;;;;;;;;;;;17.59;69.30;96188.38;5047929;28;19980;-79
2022/08/26 04:07:41;;;;;;;;;;;;;;;17.58;69.71;96193.97;5038479;28;19952;-80
2022/08/26 04:10:09;;;;;;;;;;;;;;;17.56;69.72;96196.88;5043393;28;19969;-79
2022/08/26 04:12:36;;;;;;;;;;;;;;;17.52;69.91;96203.00;5047303;28;19967;-79
2022/08/26 04:15:05;;;;;;;;;;;;;;;17.48;70.37;96199.28;5043069;28;20451;-79
2022/08/26 04:17:31;;;;;;;;;;;;;;;17.45;70.22;96196.13;5043734;28;19968;-79
2022/08/26 04:19:57;;;;;;;;;;;;;;;17.42;70.61;96195.84;5046106;28;20397;-80
2022/08/26 04:22:23;;;;;;;;;;;;;;;17.38;70.40;96198.22;5049229;28;20067;-79
2022/08/26 04:24:48;;;;;;;;;;;;;;;17.35;70.99;96195.34;5036739;28;20042;-79
2022/08/26 04:27:15;;;;;;;;;;;;;;;17.31;70.24;96189.78;5042853;28;19971;-80
2022/08/26 04:29:40;;;;;;;;;;;;;;;17.30;70.45;96184.72;5050159;28;20325;-80
2022/08/26 04:32:07;;;;;;;;;;;;;;;17.29;70.79;96188.44;5046190;28;19961;-79
2022/08/26 04:34:34;;;;;;;;;;;;;;;17.27;70.29;96186.06;5040330;28;19955;-79
2022/08/26 04:37:00;;;;;;;;;;;;;;;17.28;70.26;96178.91;5043723;28;19961;-80
2022/08/26 04:39:26;;;;;;;;;;;;;;;17.28;70.41;96182.34;5047465;28;19966;-80
2022/08/26 04:41:53;;;;;;;;;;;;;;;17.28;70.65;96178.91;5050676;28;19972;-79
2022/08/26 04:44:20;;;;;;;;;;;;;;;17.27;71.11;96177.31;5044458;28;19962;-79
2022/08/26 04:46:46;;;;;;;;;;;;;;;17.24;71.41;96176.78;5044837;28;19978;-79
2022/08/26 04:49:12;;;;;;;;;;;;;;;17.23;70.77;96177.84;5046385;28;19957;-80
2022/08/26 04:51:38;;;;;;;;;;;;;;;17.23;70.63;96182.34;5049714;28;19972;-79
2022/08/26 04:54:05;;;;;;;;;;;;;;;17.21;70.39;96177.31;5048116;28;19969;-80
2022/08/26 04:56:34;;;;;;;;;;;;;;;17.20;70.83;96181.03;5052686;28;19962;-80
2022/08/26 04:59:00;;;;;;;;;;;;;;;17.22;70.82;96183.44;5041488;28;19959;-80
2022/08/26 05:01:27;;;;;;;;;;;;;;;17.23;71.65;96193.75;5046612;28;20315;-80
2022/08/26 05:03:53;;;;;;;;;;;;;;;17.24;71.09;96197.22;5051093;28;19963;-79
2022/08/26 05:06:19;;;;;;;;;;;;;;;17.23;71.42;96199.03;5041992;28;19957;-80
2022/08/26 05:08:45;;;;;;;;;;;;;;;17.25;71.29;96198.78;5048219;28;20311;-80
2022/08/26 05:11:11;;;;;;;;;;;;;;;17.33;71.28;96194.81;5050003;28;19968;-80
2022/08/26 05:13:37;;;;;;;;;;;;;;;17.40;71.05;96197.97;5039634;28;20409;-80
2022/08/26 05:16:05;;;;;;;;;;;;;;;17.48;70.66;96196.66;5049794;28;19964;-80
2022/08/26 05:18:32;;;;;;;;;;;;;;;17.63;70.17;96200.03;5047179;28;19966;-80
2022/08/26 05:20:59;;;;;;;;;;;;;;;17.79;70.17;96195.50;5048970;28;20450;-80
2022/08/26 05:23:25;;;;;;;;;;;;;;;17.89;69.57;96194.72;5046063;28;19980;-80
2022/08/26 05:25:52;;;;;;;;;;;;;;;17.89;69.57;96197.38;5042950;28;20331;-80
2022/08/26 05:28:20;;;;;;;;;;;;;;;17.85;69.20;96191.81;5044023;28;20407;-80
2022/08/26 05:30:47;;;;;;;;;;;;;;;17.82;69.00;96202.94;5045458;28;20322;-80
2022/08/26 05:33:13;;;;;;;;;;;;;;;17.88;69.01;96192.34;5041643;28;19964;-80
2022/08/26 05:35:40;;;;;;;;;;;;;;;17.99;68.62;96196.53;5047524;28;19980;-80
2022/08/26 05:38:08;;;;;;;;;;;;;;;18.15;68.34;96194.63;5050573;28;19961;-80
2022/08/26 05:40:35;;;;;;;;;;;;;;;18.51;67.70;96197.09;5045444;28;19959;-80
2022/08/26 05:43:03;;;;;;;;;;;;;;;19.00;66.92;96190.94;5045852;28;19974;-80
2022/08/26 05:45:31;;;;;;;;;;;;;;;19.55;65.32;96170.25;5042461;28;19963;-80
2022/08/26 05:47:57;;;;;;;;;;;;;;;20.07;63.92;96167.81;5051627;28;19959;-80
2022/08/26 05:50:24;;;;;;;;;;;;;;;20.53;62.34;96158.44;5043668;28;19965;-80
2022/08/26 05:52:50;;;;;;;;;;;;;;;20.87;60.87;96155.53;5045294;28;19964;-80
2022/08/26 05:55:17;;;;;;;;;;;;;;;21.08;59.46;96140.81;5041456;28;19964;-80
2022/08/26 05:57:43;;;;;;;;;;;;;;;21.27;58.72;96143.44;5050558;28;19959;-80
2022/08/26 06:00:10;;;;;;;;;;;;;;;21.43;58.93;96146.63;5049884;28;19966;-80
2022/08/26 06:02:37;;;;;;;;;;;;;;;21.57;57.98;96133.31;5045368;28;20356;-80
2022/08/26 06:05:03;;;;;;;;;;;;;;;21.82;57.90;96139.25;5043900;28;19958;-80
2022/08/26 06:10:14;;;;;;;;;;;;;;;22.43;56.45;96123.84;5040528;28;19958;-80
2022/08/26 06:12:40;;;;;;;;;;;;;;;22.57;54.94;96118.44;5061982;28;19964;-80
2022/08/26 06:15:06;;;;;;;;;;;;;;;22.58;55.20;96117.38;5042266;28;20402;-81
2022/08/26 06:17:32;;;;;;;;;;;;;;;22.72;55.36;96128.78;5043687;28;19963;-80
2022/08/26 06:19:57;;;;;;;;;;;;;;;22.81;54.46;96123.50;5045375;28;20009;-81
2022/08/26 06:27:52;;;;;;;;;;;;;;;23.21;54.07;96126.28;5043646;28;19968;-81
2022/08/26 06:30:18;;;;;;;;;;;;;;;23.30;53.58;96135.91;5039565;28;19949;-81
2022/08/26 06:32:44;;;;;;;;;;;;;;;23.42;53.75;96132.69;5041729;28;20543;-81
2022/08/26 06:35:11;;;;;;;;;;;;;;;23.52;52.73;96134.31;5047685;28;19961;-81
2022/08/26 06:37:37;;;;;;;;;;;;;;;23.61;52.99;96134.34;5044568;28;19963;-81
2022/08/26 06:40:03;;;;;;;;;;;;;;;23.70;52.55;96138.63;5061529;28;19965;-81
2022/08/26 06:42:29;;;;;;;;;;;;;;;23.74;52.84;96141.47;5042786;28;19986;-81
2022/08/26 06:44:55;;;;;;;;;;;;;;;23.74;52.14;96130.75;5040481;28;19974;-81
2022/08/26 06:47:21;;;;;;;;;;;;;;;23.73;52.42;96147.13;5043838;28;20305;-81
2022/08/26 06:49:47;;;;;;;;;;;;;;;23.68;52.54;96150.72;5047919;28;19968;-81
2022/08/26 06:52:13;;;;;;;;;;;;;;;23.63;52.64;96154.34;5043958;28;20438;-81
2022/08/26 06:54:42;;;;;;;;;;;;;;;23.66;52.97;96155.59;5040999;28;20081;-80
2022/08/26 06:57:08;;;;;;;;;;;;;;;23.51;53.13;96164.84;5039433;28;19991;-80
2022/08/26 06:59:34;;;;;;;;;;;;;;;23.42;53.00;96161.34;5050186;28;19963;-80
2022/08/26 07:02:01;;;;;;;;;;;;;;;23.46;53.45;96165.75;5046610;28;19988;-80
2022/08/26 07:04:27;;;;;;;;;;;;;;;23.51;53.04;96157.59;5046980;28;19973;-80
2022/08/26 07:06:53;;;;;;;;;;;;;;;23.48;53.33;96165.47;5048113;28;20008;-80
2022/08/26 07:09:24;;;;;;;;;;;;;;;23.50;52.93;96164.06;5044371;28;19962;-80
2022/08/26 07:11:50;;;;;;;;;;;;;;;23.33;53.37;96171.19;5043368;28;19951;-80
2022/08/26 07:14:17;;;;;;;;;;;;;;;23.28;53.81;96175.56;5045140;28;19964;-80
2022/08/26 07:16:43;;;;;;;;;;;;;;;23.43;53.97;96181.63;5049233;28;19962;-80
2022/08/26 07:19:09;;;;;;;;;;;;;;;23.45;53.01;96164.16;5044450;28;19956;-80
2022/08/26 07:21:35;;;;;;;;;;;;;;;23.46;53.89;96179.16;5038371;28;19987;-80
2022/08/26 07:24:02;;;;;;;;;;;;;;;23.50;54.00;96179.34;5044468;28;19971;-80
2022/08/26 07:26:29;;;;;;;;;;;;;;;23.66;54.07;96177.81;5043097;28;20364;-80
2022/08/26 07:28:56;;;;;;;;;;;;;;;23.93;52.87;96164.56;5044931;28;19964;-80
2022/08/26 07:31:23;;;;;;;;;;;;;;;24.14;52.27;96157.50;5045130;28;19960;-80
2022/08/26 07:33:49;;;;;;;;;;;;;;;24.37;51.16;96157.41;5040314;28;20337;-80
2022/08/26 07:36:16;;;;;;;;;;;;;;;24.56;51.80;96162.50;5046538;28;20428;-80
2022/08/26 07:38:43;;;;;;;;;;;;;;;24.60;50.95;96163.44;5037730;28;19957;-80
2022/08/26 07:41:09;;;;;;;;;;;;;;;24.65;50.82;96158.72;5030140;28;19970;-80
2022/08/26 07:43:36;;;;;;;;;;;;;;;24.77;50.39;96155.38;5041626;28;19971;-80
2022/08/26 07:46:02;;;;;;;;;;;;;;;24.82;50.03;96160.59;5044897;28;19957;-80
2022/08/26 07:48:28;;;;;;;;;;;;;;;24.82;49.18;96152.56;5042015;28;19963;-80
2022/08/26 07:50:54;;;;;;;;;;;;;;;24.89;50.55;96168.94;5046529;28;20359;-81
2022/08/26 07:53:20;;;;;;;;;;;;;;;24.98;50.19;96158.22;5050362;28;19956;-80
2022/08/26 07:55:46;;;;;;;;;;;;;;;25.10;50.95;96171.00;5043998;28;20388;-80
2022/08/26 07:58:12;;;;;;;;;;;;;;;25.26;49.75;96165.91;5042747;28;20438;-80
2022/08/26 08:00:38;;;;;;;;;;;;;;;25.24;48.44;96158.22;5038932;28;19955;-80
2022/08/26 08:03:05;;;;;;;;;;;;;;;25.22;49.23;96162.28;5039429;28;20017;-80
2022/08/26 08:05:32;;;;;;;;;;;;;;;25.24;49.69;96176.19;5047559;28;19961;-80
2022/08/26 08:07:59;;;;;;;;;;;;;;;25.30;50.21;96173.03;5048088;28;20445;-80
2022/08/26 08:10:26;;;;;;;;;;;;;;;25.34;48.81;96156.28;5052729;28;19976;-80
2022/08/26 08:12:52;;;;;;;;;;;;;;;25.55;49.71;96169.81;5049016;28;19968;-80
2022/08/26 08:15:19;;;;;;;;;;;;;;;25.76;49.46;96165.28;5042134;28;20430;-80
2022/08/26 08:17:46;;;;;;;;;;;;;;;25.98;48.05;96155.44;5049026;28;19966;-80
2022/08/26 08:20:12;;;;;;;;;;;;;;;26.15;47.03;96155.34;5047735;28;19953;-80
2022/08/26 08:22:39;;;;;;;;;;;;;;;26.32;47.97;96168.66;5046234;28;19982;-80
2022/08/26 08:25:06;;;;;;;;;;;;;;;26.50;47.94;96171.22;5047569;28;19968;-80
2022/08/26 08:27:32;;;;;;;;;;;;;;;26.62;45.80;96163.25;5041048;28;19975;-81
2022/08/26 08:29:59;;;;;;;;;;;;;;;26.63;45.43;96162.16;5050206;28;19973;-80
2022/08/26 08:32:25;;;;;;;;;;;;;;;26.65;45.80;96168.00;5046682;28;20335;-81
2022/08/26 08:34:51;;;;;;;;;;;;;;;26.79;45.93;96169.63;5049366;28;19968;-81
2022/08/26 08:37:17;;;;;;;;;;;;;;;27.00;45.72;96164.22;5047525;28;20007;-81
2022/08/26 08:39:43;;;;;;;;;;;;;;;27.17;44.14;96150.56;5046704;28;20412;-81
2022/08/26 08:42:12;;;;;;;;;;;;;;;27.35;45.28;96163.91;5044244;28;19997;-81
2022/08/26 08:44:40;;;;;;;;;;;;;;;27.41;42.55;96154.50;5047659;28;19968;-81
2022/08/26 08:47:24;;;;;;;;;;;;;;;27.28;43.83;96167.16;5051066;28;19968;-81
2022/08/26 08:49:52;;;;;;;;;;;;;;;27.12;44.72;96170.41;5049553;28;19966;-81
2022/08/26 08:52:34;;;;;;;;;;;;;;;27.08;43.91;96160.66;5042707;28;19960;-81
2022/08/26 08:55:00;;;;;;;;;;;;;;;27.20;44.93;96162.59;5044904;28;20423;-81
2022/08/26 08:57:46;;;;;;;;;;;;;;;27.40;44.70;96161.75;5052482;28;19974;-81
2022/08/26 09:00:16;;;;;;;;;;;;;;;27.70;44.29;96158.91;5049696;28;19962;-81
2022/08/26 09:02:52;;;;;;;;;;;;;;;27.97;44.42;96154.78;5047067;28;19981;-81
2022/08/26 09:05:30;;;;;;;;;;;;;;;28.18;43.12;96149.28;5032285;28;19963;-81
2022/08/26 09:08:00;;;;;;;;;;;;;;;28.38;43.33;96152.94;5045004;28;19970;-81
2022/08/26 09:10:32;;;;;;;;;;;;;;;28.55;42.07;96143.81;5049823;28;19962;-81
2022/08/26 09:12:59;;;;;;;;;;;;;;;28.61;40.60;96149.78;5047011;28;20417;-81
2022/08/26 09:15:30;;;;;;;;;;;;;;;28.63;43.41;96161.78;5047040;28;20338;-81
2022/08/26 09:17:58;;;;;;;;;;;;;;;28.69;42.32;96151.53;5042836;28;20322;-81
2022/08/26 09:20:41;;;;;;;;;;;;;;;28.66;43.03;96153.00;5044074;28;20017;-81
2022/08/26 09:23:08;;;;;;;;;;;;;;;28.35;42.78;96150.94;5064711;28;19974;-81
2022/08/26 09:25:43;;;;;;;;;;;;;;;28.08;43.83;96153.22;5050133;28;19992;-81
2022/08/26 09:28:12;;;;;;;;;;;;;;;28.00;43.91;96156.03;5044726;28;19971;-81
2022/08/26 09:30:38;;;;;;;;;;;;;;;27.97;44.29;96154.00;5043069;28;20332;-81
2022/08/26 09:33:06;;;;;;;;;;;;;;;27.73;43.85;96160.91;5046068;28;19965;-81
2022/08/26 09:35:34;;;;;;;;;;;;;;;27.68;43.96;96150.38;5050640;28;19966;-81
2022/08/26 09:38:01;;;;;;;;;;;;;;;27.78;44.25;96146.44;5045217;28;19964;-81
2022/08/26 09:40:31;;;;;;;;;;;;;;;27.58;41.95;96132.75;5043577;28;20330;-81
2022/08/26 09:43:20;;;;;;;;;;;;;;;27.37;43.66;96148.19;5043274;28;20392;-81
2022/08/26 09:45:48;;;;;;;;;;;;;;;27.41;44.43;96146.41;5026647;28;19973;-81
2022/08/26 09:48:43;;;;;;;;;;;;;;;27.56;44.52;96136.91;5045914;28;19962;-81
2022/08/26 09:51:25;;;;;;;;;;;;;;;27.51;43.47;96133.28;5023633;28;19965;-81
2022/08/26 09:53:58;;;;;;;;;;;;;;;27.40;44.87;96131.38;5042325;28;19962;-81
2022/08/26 09:56:24;;;;;;;;;;;;;;;27.27;43.72;96122.47;5043285;28;19980;-81
2022/08/26 09:58:50;;;;;;;;;;;;;;;27.27;44.94;96130.56;5049335;28;19964;-81
2022/08/26 10:01:22;;;;;;;;;;;;;;;27.26;42.39;96113.63;5048648;28;19961;-81
2022/08/26 10:03:48;;;;;;;;;;;;;;;27.44;43.03;96108.03;5027765;28;19975;-82
2022/08/26 10:06:20;;;;;;;;;;;;;;;27.56;43.38;96107.25;5039623;28;20330;-81
2022/08/26 10:08:57;;;;;;;;;;;;;;;27.51;43.29;96097.50;5048088;28;19969;-81
2022/08/26 10:11:38;;;;;;;;;;;;;;;27.41;42.09;96084.47;5045399;28;20429;-81
2022/08/26 10:14:16;;;;;;;;;;;;;;;27.33;42.53;96078.84;5045030;28;19954;-82
2022/08/26 10:17:01;;;;;;;;;;;;;;;27.37;43.68;96092.44;5047854;28;19962;-82
2022/08/26 10:19:36;;;;;;;;;;;;;;;27.31;43.50;96083.78;5042686;28;20342;-82
2022/08/26 10:22:09;;;;;;;;;;;;;;;27.23;43.21;96083.88;5040156;28;19957;-81
2022/08/26 10:24:41;;;;;;;;;;;;;;;27.14;42.68;96076.66;5046800;28;19977;-82
2022/08/26 10:27:21;;;;;;;;;;;;;;;27.05;43.45;96078.69;5047208;28;19979;-82
2022/08/26 10:29:49;;;;;;;;;;;;;;;27.01;43.62;96085.06;5042391;28;20421;-81
2022/08/26 10:32:26;;;;;;;;;;;;;;;26.98;43.31;96083.78;5043504;28;19958;-82
2022/08/26 10:34:52;;;;;;;;;;;;;;;26.98;43.01;96080.31;5045188;28;20317;-81
2022/08/26 10:37:20;;;;;;;;;;;;;;;26.99;42.87;96082.69;5050327;28;19961;-82
2022/08/26 10:39:45;;;;;;;;;;;;;;;27.09;40.70;96071.50;5047848;28;19963;-82
2022/08/26 10:42:33;;;;;;;;;;;;;;;27.16;42.01;96072.88;5041745;28;20403;-82
2022/08/26 10:45:03;;;;;;;;;;;;;;;27.18;42.50;96074.09;5041672;28;19981;-82
2022/08/26 10:47:34;;;;;;;;;;;;;;;27.19;41.58;96072.19;5043923;28;19965;-81
2022/08/26 10:50:02;;;;;;;;;;;;;;;27.21;41.70;96068.03;5031845;28;19974;-82
2022/08/26 10:52:35;;;;;;;;;;;;;;;27.23;42.84;96073.13;5042074;28;19963;-82
2022/08/26 10:55:24;;;;;;;;;;;;;;;27.39;43.36;96070.56;5043178;28;19956;-82
2022/08/26 10:58:04;;;;;;;;;;;;;;;27.84;42.14;96056.94;5038536;28;19961;-82
2022/08/26 11:03:17;;;;;;;;;;;;;;;28.76;40.93;96062.69;5043536;28;19976;-82
2022/08/26 11:05:44;;;;;;;;;;;;;;;29.12;39.59;96047.44;5045910;28;19964;-82
2022/08/26 11:08:15;;;;;;;;;;;;;;;29.18;39.16;96039.88;5045074;28;20019;-82
2022/08/26 11:10:51;;;;;;;;;;;;;;;29.05;38.33;96037.22;5038515;28;19960;-82
2022/08/26 11:13:17;;;;;;;;;;;;;;;28.94;38.60;96045.03;5042466;28;19956;-82
2022/08/26 11:15:46;;;;;;;;;;;;;;;28.84;38.16;96045.53;5048093;28;20053;-82
2022/08/26 11:18:32;;;;;;;;;;;;;;;28.70;38.17;96043.25;5045064;28;20334;-82
2022/08/26 11:20:58;;;;;;;;;;;;;;;28.58;39.71;96059.53;5044124;28;19959;-82
2022/08/26 11:23:27;;;;;;;;;;;;;;;28.48;39.79;96057.28;5039437;28;19989;-82
2022/08/26 11:25:55;;;;;;;;;;;;;;;28.34;39.74;96050.34;5043003;28;19990;-82
2022/08/26 11:28:33;;;;;;;;;;;;;;;28.25;40.35;96054.31;5041900;28;19960;-82
2022/08/26 11:30:58;;;;;;;;;;;;;;;28.08;39.84;96050.00;5043096;28;20436;-82
2022/08/26 11:33:42;;;;;;;;;;;;;;;27.92;40.15;96052.59;5049062;28;19997;-82
2022/08/26 11:36:09;;;;;;;;;;;;;;;27.76;41.08;96049.00;5040875;28;19960;-82
2022/08/26 11:38:40;;;;;;;;;;;;;;;27.64;41.75;96066.75;5042041;28;19969;-82
2022/08/26 11:41:10;;;;;;;;;;;;;;;27.62;41.53;96062.81;5043866;28;19965;-82
2022/08/26 11:43:37;;;;;;;;;;;;;;;27.58;43.27;96072.69;5048278;28;19975;-82
2022/08/26 11:46:07;;;;;;;;;;;;;;;27.53;43.31;96081.78;5049239;28;19955;-82
2022/08/26 11:48:35;;;;;;;;;;;;;;;27.35;43.45;96075.06;5044287;28;20408;-82
2022/08/26 11:51:03;;;;;;;;;;;;;;;27.12;44.06;96083.50;5039946;28;19954;-82
2022/08/26 11:53:31;;;;;;;;;;;;;;;26.91;43.87;96095.09;5043389;28;20415;-82
2022/08/26 11:55:58;;;;;;;;;;;;;;;26.71;43.72;96090.56;5045521;28;20318;-82
2022/08/26 11:58:25;;;;;;;;;;;;;;;26.51;43.91;96100.97;5039946;28;19964;-82
2022/08/26 12:01:00;;;;;;;;;;;;;;;26.38;44.41;96104.75;5036759;28;20413;-82
2022/08/26 12:03:35;;;;;;;;;;;;;;;26.21;45.32;96102.97;5033886;28;19962;-82
2022/08/26 12:06:01;;;;;;;;;;;;;;;26.02;45.79;96098.03;5042593;28;19966;-82
2022/08/26 12:08:29;;;;;;;;;;;;;;;25.91;46.74;96094.13;5038706;28;19964;-82
2022/08/26 12:11:04;;;;;;;;;;;;;;;25.85;47.43;96104.28;5045499;28;19952;-82
2022/08/26 12:13:29;;;;;;;;;;;;;;;25.85;47.44;96103.47;5046482;28;19960;-81
2022/08/26 12:15:57;;;;;;;;;;;;;;;25.84;46.86;96104.59;5042418;28;20383;-82
2022/08/26 12:18:25;;;;;;;;;;;;;;;25.90;46.26;96093.34;5042373;28;19955;-82
2022/08/26 12:20:55;;;;;;;;;;;;;;;26.00;46.02;96096.78;5039538;28;19953;-81
2022/08/26 12:23:23;;;;;;;;;;;;;;;26.04;46.11;96103.88;5045061;28;19992;-81
2022/08/26 12:26:01;;;;;;;;;;;;;;;26.11;46.46;96100.66;5049218;28;19996;-81
2022/08/26 12:28:27;;;;;;;;;;;;;;;26.16;45.59;96096.97;5047139;28;19963;-81
2022/08/26 12:31:04;;;;;;;;;;;;;;;26.13;46.17;96099.22;5042346;28;19961;-81
2022/08/26 12:33:31;;;;;;;;;;;;;;;26.12;46.07;96092.28;5040434;28;19960;-81
2022/08/26 12:35:59;;;;;;;;;;;;;;;26.14;45.76;96089.25;5045535;28;19954;-81
2022/08/26 12:38:26;;;;;;;;;;;;;;;26.15;46.60;96098.13;5045149;28;19960;-82
2022/08/26 12:40:52;;;;;;;;;;;;;;;26.17;46.73;96091.28;5044144;28;19957;-81
2022/08/26 12:43:37;;;;;;;;;;;;;;;26.21;46.81;96092.22;5043495;28;19953;-81
2022/08/26 12:46:04;;;;;;;;;;;;;;;26.26;46.07;96093.91;5026061;28;20408;-81
2022/08/26 12:48:36;;;;;;;;;;;;;;;26.23;46.77;96087.28;5038588;28;20440;-81
2022/08/26 12:51:02;;;;;;;;;;;;;;;26.20;46.85;96090.63;5044641;28;19953;-81
2022/08/26 12:53:30;;;;;;;;;;;;;;;26.25;47.54;96101.19;5044528;28;19965;-81
2022/08/26 12:55:57;;;;;;;;;;;;;;;26.31;47.42;96091.81;5052325;28;19967;-81
2022/08/26 12:58:36;;;;;;;;;;;;;;;26.43;48.08;96090.31;5045940;28;20318;-81
2022/08/26 13:01:02;;;;;;;;;;;;;;;26.56;47.19;96077.69;5047381;28;19958;-81
2022/08/26 13:03:36;;;;;;;;;;;;;;;26.68;46.90;96073.19;5049158;28;19984;-81
2022/08/26 13:06:08;;;;;;;;;;;;;;;26.78;47.02;96063.91;5041555;28;19971;-81